Time;durP1;ratioP1;P1;durP2;ratioP2;P2;SDS_P1;SDS_P2;PMS_P1;PMS_P2;Temp;Humidity;BMP_temperature;BMP_pressure;BME280_temperature;BME280_humidity;BME280_pressure;Samples;Min_cycle;Max_cycle;Signal;HPM_P1;HPM_P2
2021/12/11 00:01:53;;;;;;;11.12;6.10;;;;;;;7.58;100.00;98973.39;1641244;86;21012;-74
2021/12/11 00:04:28;;;;;;;12.30;6.85;;;;;;;7.53;100.00;98975.44;1648439;86;21127;-74
2021/12/11 00:06:57;;;;;;;13.48;7.00;;;;;;;7.48;100.00;98981.86;1651547;86;21060;-74
2021/12/11 00:09:35;;;;;;;12.88;7.28;;;;;;;7.42;100.00;98976.83;1649372;86;21505;-74
2021/12/11 00:12:17;;;;;;;13.83;7.58;;;;;;;7.37;100.00;98970.92;1653194;85;20958;-75
2021/12/11 00:14:50;;;;;;;13.40;6.92;;;;;;;7.33;100.00;98967.19;1650216;85;21109;-74
2021/12/11 00:17:30;;;;;;;11.00;6.67;;;;;;;7.28;100.00;98979.59;1637442;86;21430;-74
2021/12/11 00:19:56;;;;;;;12.60;7.10;;;;;;;7.25;100.00;98974.75;1653005;86;21053;-74
2021/12/11 00:22:30;;;;;;;12.98;7.42;;;;;;;7.22;100.00;98972.08;1654094;86;20907;-73
2021/12/11 00:25:09;;;;;;;11.35;7.08;;;;;;;7.21;100.00;98977.28;1653800;86;20979;-73
2021/12/11 00:27:41;;;;;;;11.38;7.28;;;;;;;7.19;100.00;98980.88;1649116;85;21504;-73
2021/12/11 00:30:11;;;;;;;11.95;7.30;;;;;;;7.18;100.00;98981.99;1652821;86;21140;-74
2021/12/11 00:32:40;;;;;;;15.00;7.40;;;;;;;7.15;100.00;98981.23;1650063;86;21470;-74
2021/12/11 00:35:14;;;;;;;16.77;7.28;;;;;;;7.12;100.00;98968.20;1650714;86;20930;-76
2021/12/11 00:37:41;;;;;;;12.90;7.25;;;;;;;7.10;100.00;98992.27;1612800;87;21133;-74
2021/12/11 00:40:27;;;;;;;13.45;7.17;;;;;;;7.08;100.00;98993.13;1608637;87;21187;-74
2021/12/11 00:42:59;;;;;;;13.03;7.92;;;;;;;7.07;100.00;98990.15;1653064;86;21610;-76
2021/12/11 00:45:32;;;;;;;15.35;7.95;;;;;;;7.06;100.00;98980.34;1652614;86;20962;-76
2021/12/11 00:48:04;;;;;;;11.50;7.45;;;;;;;7.05;100.00;98970.55;1654007;86;21467;-76
2021/12/11 00:50:38;;;;;;;12.68;7.62;;;;;;;7.06;100.00;98980.34;1654531;86;21497;-76
2021/12/11 00:53:18;;;;;;;14.47;8.10;;;;;;;7.06;100.00;98985.00;1655288;85;20871;-75
2021/12/11 00:55:50;;;;;;;12.25;7.83;;;;;;;7.04;100.00;98968.92;1653218;86;21955;-74
2021/12/11 00:58:25;;;;;;;11.63;7.53;;;;;;;7.02;100.00;98980.70;1650469;86;21130;-74
2021/12/11 01:01:10;;;;;;;13.53;7.95;;;;;;;6.99;100.00;98969.03;1625933;87;20947;-74
2021/12/11 01:03:49;;;;;;;15.13;8.18;;;;;;;6.95;100.00;98970.76;1654078;86;21514;-74
2021/12/11 01:06:49;;;;;;;19.10;9.13;;;;;;;6.93;100.00;98977.11;1631325;86;21458;-75
2021/12/11 01:09:36;;;;;;;16.37;8.38;;;;;;;6.90;100.00;98983.17;1649997;86;21859;-74
2021/12/11 01:12:11;;;;;;;15.53;9.00;;;;;;;6.87;100.00;98976.97;1648967;86;21020;-74
2021/12/11 01:14:58;;;;;;;16.85;9.35;;;;;;;6.82;100.00;98974.34;1651564;86;21167;-74
2021/12/11 01:17:46;;;;;;;14.05;8.48;;;;;;;6.78;100.00;98985.61;1656216;86;21120;-74
2021/12/11 01:20:33;;;;;;;13.93;8.90;;;;;;;6.73;100.00;98974.80;1644123;86;21076;-73
2021/12/11 01:22:59;;;;;;;17.92;9.78;;;;;;;6.70;100.00;98976.77;1652957;86;21176;-73
2021/12/11 01:25:34;;;;;;;16.85;10.13;;;;;;;6.68;100.00;98968.09;1633648;86;21014;-74
2021/12/11 01:28:04;;;;;;;23.25;10.43;;;;;;;6.64;100.00;98977.43;1636154;86;20942;-73
2021/12/11 01:30:39;;;;;;;19.25;10.48;;;;;;;6.64;100.00;98974.70;1652013;86;21482;-74
2021/12/11 01:33:09;;;;;;;15.93;10.32;;;;;;;6.64;100.00;98971.98;1652406;86;20937;-73
2021/12/11 01:35:41;;;;;;;18.98;9.50;;;;;;;6.63;100.00;98985.36;1627906;86;21128;-73
2021/12/11 01:38:20;;;;;;;16.45;10.43;;;;;;;6.62;100.00;98969.55;1650381;86;21554;-73
2021/12/11 01:40:52;;;;;;;19.48;10.90;;;;;;;6.63;100.00;98984.80;1653865;86;20903;-73
2021/12/11 01:43:21;;;;;;;18.62;10.55;;;;;;;6.62;100.00;98988.64;1652176;86;20990;-74
2021/12/11 01:45:56;;;;;;;16.45;11.48;;;;;;;6.62;100.00;98987.83;1635910;86;20953;-74
2021/12/11 01:48:32;;;;;;;21.10;11.00;;;;;;;6.61;100.00;98980.21;1625142;86;20954;-74
2021/12/11 01:51:04;;;;;;;16.60;11.12;;;;;;;6.60;100.00;98984.05;1649321;86;21537;-73
2021/12/11 01:53:40;;;;;;;16.65;10.85;;;;;;;6.59;100.00;98991.97;1652768;86;20993;-72
2021/12/11 01:56:26;;;;;;;16.05;10.18;;;;;;;6.58;100.00;98984.91;1627741;86;20923;-72
2021/12/11 01:59:04;;;;;;;17.25;11.20;;;;;;;6.58;100.00;98990.91;1644300;86;21038;-72
2021/12/11 02:01:39;;;;;;;22.75;11.03;;;;;;;6.58;100.00;98993.09;1649850;86;21208;-73
2021/12/11 02:04:06;;;;;;;22.42;11.68;;;;;;;6.57;100.00;98997.48;1652918;86;21047;-73
2021/12/11 02:06:38;;;;;;;23.55;12.30;;;;;;;6.56;100.00;99002.13;1655110;86;21038;-73
2021/12/11 02:09:21;;;;;;;21.80;12.68;;;;;;;6.58;100.00;98997.17;1654579;86;21058;-73
2021/12/11 02:12:02;;;;;;;22.20;11.22;;;;;;;6.58;100.00;98999.91;1646679;86;20973;-72
2021/12/11 02:14:39;;;;;;;18.02;11.83;;;;;;;6.57;100.00;98990.66;1649392;85;21159;-73
2021/12/11 02:17:09;;;;;;;17.37;12.33;;;;;;;6.57;100.00;99007.02;1651297;85;20915;-73
2021/12/11 02:19:39;;;;;;;23.10;13.20;;;;;;;6.55;100.00;99008.69;1653296;85;20868;-72
2021/12/11 02:22:12;;;;;;;20.37;13.40;;;;;;;6.54;100.00;99003.53;1648618;85;21485;-71
2021/12/11 02:24:47;;;;;;;22.67;13.62;;;;;;;6.54;100.00;99007.63;1608972;88;20890;-71
2021/12/11 02:27:24;;;;;;;19.48;13.22;;;;;;;6.53;100.00;99008.73;1612971;87;21144;-71
2021/12/11 02:30:04;;;;;;;21.40;13.55;;;;;;;6.52;100.00;99012.02;1610236;88;21558;-73
2021/12/11 02:32:42;;;;;;;21.00;13.55;;;;;;;6.52;100.00;99018.84;1591713;88;21559;-73
2021/12/11 02:35:27;;;;;;;23.90;12.10;;;;;;;6.51;100.00;99015.05;1610099;88;20959;-73
2021/12/11 02:38:12;;;;;;;23.85;13.03;;;;;;;6.50;100.00;99006.06;1611522;88;20920;-72
2021/12/11 02:40:35;;;;;;;27.37;14.23;;;;;;;6.49;100.00;99003.63;1590467;88;21193;-72
2021/12/11 02:43:33;;;;;;;22.77;13.70;;;;;;;6.48;100.00;98997.38;1584761;88;20971;-73
2021/12/11 02:46:05;;;;;;;22.77;15.70;;;;;;;6.47;100.00;98989.49;1611551;88;21121;-72
2021/12/11 02:48:40;;;;;;;22.07;13.70;;;;;;;6.47;100.00;98992.22;1605225;89;21464;-73
2021/12/11 02:51:22;;;;;;;31.20;15.32;;;;;;;6.47;100.00;98982.13;1611942;87;21160;-74
2021/12/11 02:53:58;;;;;;;23.07;14.45;;;;;;;6.46;100.00;98986.52;1609356;88;21365;-73
2021/12/11 02:56:36;;;;;;;24.23;15.85;;;;;;;6.45;100.00;98988.98;1591769;89;20948;-73
2021/12/11 02:59:09;;;;;;;25.32;15.50;;;;;;;6.45;100.00;98988.43;1604229;88;21507;-73
2021/12/11 03:01:50;;;;;;;25.97;15.32;;;;;;;6.44;100.00;98973.19;1604287;87;21464;-73
2021/12/11 03:04:34;;;;;;;27.10;15.53;;;;;;;6.45;100.00;98982.17;1597274;89;21503;-73
2021/12/11 03:07:03;;;;;;;27.13;16.40;;;;;;;6.44;100.00;98982.73;1602456;88;21826;-72
2021/12/11 03:09:35;;;;;;;22.67;15.20;;;;;;;6.43;100.00;98974.30;1598806;88;20976;-73
2021/12/11 03:12:07;;;;;;;25.95;16.70;;;;;;;6.42;100.00;98980.86;1618630;87;21029;-73
2021/12/11 03:14:36;;;;;;;26.30;17.48;;;;;;;6.43;100.00;98987.92;1600737;88;21020;-73
2021/12/11 03:17:05;;;;;;;29.12;16.73;;;;;;;6.43;100.00;98978.38;1612012;88;21016;-73
2021/12/11 03:19:41;;;;;;;23.42;16.52;;;;;;;6.43;100.00;98978.38;1588692;89;21082;-73
2021/12/11 03:22:13;;;;;;;;;;;;;;;6.45;100.00;98964.45;1606788;88;20936;-73
2021/12/11 03:24:40;;;;;;;26.25;17.15;;;;;;;6.44;100.00;98958.74;1597185;87;20130;-73
2021/12/11 03:27:13;;;;;;;25.12;16.77;;;;;;;6.46;100.00;98958.69;1595759;89;21472;-75
2021/12/11 03:29:44;;;;;;;26.82;16.48;;;;;;;6.47;100.00;98952.13;1621921;87;20983;-74
2021/12/11 03:32:13;;;;;;;27.07;17.12;;;;;;;6.45;100.00;98959.80;1629091;87;21574;-72
2021/12/11 03:34:49;;;;;;;25.85;16.87;;;;;;;6.45;100.00;98957.08;1627259;87;21035;-74
2021/12/11 03:37:22;;;;;;;31.23;18.35;;;;;;;6.47;100.00;98955.41;1622916;87;21027;-74
2021/12/11 03:39:56;;;;;;;31.10;18.12;;;;;;;6.48;100.00;98950.20;1627063;87;21470;-73
2021/12/11 03:42:30;;;;;;;25.23;17.25;;;;;;;6.49;100.00;98949.09;1612218;87;20962;-73
2021/12/11 03:45:03;;;;;;;27.20;18.12;;;;;;;6.46;100.00;98944.25;1588815;89;21174;-72
2021/12/11 03:47:38;;;;;;;30.20;17.95;;;;;;;6.48;100.00;98949.66;1610973;89;21015;-72
2021/12/11 03:50:13;;;;;;;24.70;16.07;;;;;;;6.49;100.00;98959.45;1629247;86;21041;-72
2021/12/11 03:52:41;;;;;;;28.23;17.48;;;;;;;6.48;100.00;98968.73;1652117;86;26363;-72
2021/12/11 03:55:12;;;;;;;28.87;17.85;;;;;;;6.49;100.00;98973.64;1654738;86;21501;-73
2021/12/11 03:57:43;;;;;;;27.55;17.95;;;;;;;6.50;100.00;98976.62;1653210;85;21143;-73
2021/12/11 04:00:19;;;;;;;26.55;17.82;;;;;;;6.51;100.00;98982.33;1650547;86;37649;-74
2021/12/11 04:02:49;;;;;;;28.77;17.98;;;;;;;6.52;100.00;98974.39;1612687;88;20914;-74
2021/12/11 04:05:21;;;;;;;30.92;18.60;;;;;;;6.53;100.00;98986.92;1652289;86;21253;-73
2021/12/11 04:07:56;;;;;;;26.90;19.67;;;;;;;6.52;100.00;98986.11;1634857;86;20935;-73
2021/12/11 04:10:32;;;;;;;31.23;20.55;;;;;;;6.55;100.00;98988.80;1644441;86;21202;-72
2021/12/11 04:13:06;;;;;;;35.08;20.77;;;;;;;6.54;100.00;98985.26;1634922;86;20941;-73
2021/12/11 04:15:37;;;;;;;38.48;22.35;;;;;;;6.54;100.00;98981.72;1654229;86;20950;-73
2021/12/11 04:18:11;;;;;;;28.05;21.25;;;;;;;6.53;100.00;98976.83;1650988;86;21117;-72
2021/12/11 04:20:45;;;;;;;34.18;22.82;;;;;;;6.55;100.00;98981.42;1654341;86;21579;-73
2021/12/11 04:23:13;;;;;;;38.67;22.90;;;;;;;6.55;100.00;98984.14;1651657;85;21161;-74
2021/12/11 04:25:43;;;;;;;35.65;21.87;;;;;;;6.55;100.00;98981.42;1632882;86;21009;-73
2021/12/11 04:28:16;;;;;;;35.38;22.55;;;;;;;6.55;100.00;98971.87;1616225;86;20985;-72
2021/12/11 04:30:50;;;;;;;32.80;21.97;;;;;;;6.56;100.00;98961.77;1625123;86;21442;-71
2021/12/11 04:33:26;;;;;;;33.78;22.25;;;;;;;6.56;100.00;98970.77;1625966;86;27014;-71
2021/12/11 04:35:53;;;;;;;30.70;22.73;;;;;;;6.55;100.00;98970.51;1633538;86;21187;-71
2021/12/11 04:38:24;;;;;;;34.63;24.12;;;;;;;6.55;100.00;98963.69;1639220;86;20902;-72
2021/12/11 04:41:04;;;;;;;39.88;25.20;;;;;;;6.56;100.00;98968.03;1629597;86;20991;-72
2021/12/11 04:43:26;;;;;;;36.45;23.95;;;;;;;6.56;100.00;98965.86;1646711;86;21003;-72
2021/12/11 04:46:08;;;;;;;43.63;25.77;;;;;;;6.57;100.00;98951.12;1621511;87;20980;-71
2021/12/11 04:49:01;;;;;;;37.42;26.65;;;;;;;6.58;100.00;98938.55;1641928;86;21188;-72
2021/12/11 04:51:29;;;;;;;41.60;26.35;;;;;;;6.56;100.00;98987.68;1650361;86;20959;-73
2021/12/11 04:54:33;;;;;;;47.33;27.15;;;;;;;6.56;100.00;98999.39;1612752;87;21081;-72
2021/12/11 04:59:48;;;;;;;39.80;25.15;;;;;;;6.55;100.00;98991.52;1584872;89;21095;-71
2021/12/11 05:02:47;;;;;;;42.60;27.55;;;;;;;6.54;100.00;98989.34;1565081;89;21164;-71
2021/12/11 05:05:10;;;;;;;41.95;25.43;;;;;;;6.54;100.00;98985.26;1621018;87;21091;-71
2021/12/11 05:07:43;;;;;;;40.80;25.57;;;;;;;6.57;100.00;98979.75;1607720;87;21051;-70
2021/12/11 05:10:24;;;;;;;39.48;25.57;;;;;;;6.58;100.00;98982.17;1607323;86;21150;-72
2021/12/11 05:12:56;;;;;;;45.12;24.10;;;;;;;6.58;100.00;98980.00;1624709;87;21077;-71
2021/12/11 05:15:32;;;;;;;34.08;22.73;;;;;;;6.60;100.00;98975.86;1625455;87;21552;-72
2021/12/11 05:18:05;;;;;;;36.83;23.95;;;;;;;6.61;100.00;98974.75;1622237;87;21042;-71
2021/12/11 05:20:38;;;;;;;39.60;23.38;;;;;;;6.60;100.00;98965.52;1590944;88;20948;-71
2021/12/11 05:23:06;;;;;;;32.53;22.37;;;;;;;6.61;100.00;98978.03;1615861;87;20978;-72
2021/12/11 05:25:39;;;;;;;36.00;19.97;;;;;;;6.63;100.00;98976.62;1610258;87;20891;-72
2021/12/11 05:28:08;;;;;;;34.78;20.85;;;;;;;6.63;100.00;98962.98;1612806;87;22142;-72
2021/12/11 05:30:41;;;;;;;32.85;22.17;;;;;;;6.65;100.00;98963.23;1627957;87;20855;-71
2021/12/11 05:33:07;;;;;;;34.83;21.73;;;;;;;6.66;100.00;98958.84;1607977;87;21075;-72
2021/12/11 05:35:43;;;;;;;35.55;20.80;;;;;;;6.67;100.00;98959.09;1629478;87;21563;-72
2021/12/11 05:38:15;;;;;;;35.73;20.55;;;;;;;6.67;100.00;98968.64;1616923;87;21169;-72
2021/12/11 05:40:49;;;;;;;36.23;22.25;;;;;;;6.65;100.00;98961.31;1609795;87;21955;-73
2021/12/11 05:43:17;;;;;;;30.35;20.97;;;;;;;6.64;100.00;98962.43;1602718;88;21036;-72
2021/12/11 05:45:48;;;;;;;34.63;22.30;;;;;;;6.63;100.00;98961.62;1591712;88;21530;-71
2021/12/11 05:48:18;;;;;;;34.98;20.75;;;;;;;6.63;100.00;98963.54;1601956;88;21039;-70
2021/12/11 05:50:50;;;;;;;32.28;20.90;;;;;;;6.63;100.00;98964.91;1607889;86;21499;-73
2021/12/11 05:53:24;;;;;;;37.48;22.37;;;;;;;6.62;100.00;98965.46;1615968;86;21726;-71
2021/12/11 05:55:57;;;;;;;33.70;21.85;;;;;;;6.65;100.00;98958.59;1632206;86;21138;-72
2021/12/11 05:58:56;;;;;;;31.85;21.52;;;;;;;6.65;100.00;98961.31;1637105;86;21089;-71
2021/12/11 06:01:30;;;;;;;34.63;21.45;;;;;;;6.65;100.00;98957.23;1641020;86;20974;-72
2021/12/11 06:04:00;;;;;;;38.67;22.55;;;;;;;6.65;100.00;98954.50;1640249;86;20924;-72
2021/12/11 06:06:32;;;;;;;27.82;19.87;;;;;;;6.65;100.00;98954.50;1643342;86;21158;-72
2021/12/11 06:09:03;;;;;;;35.60;22.48;;;;;;;6.65;100.00;98956.42;1641212;86;21009;-73
2021/12/11 06:11:35;;;;;;;32.78;21.37;;;;;;;6.65;100.00;98959.14;1607520;86;21123;-72
2021/12/11 06:14:03;;;;;;;30.55;21.25;;;;;;;6.66;100.00;98960.20;1633755;86;21115;-70
2021/12/11 06:16:39;;;;;;;29.07;20.35;;;;;;;6.67;100.00;98954.20;1625352;86;21085;-72
2021/12/11 06:19:08;;;;;;;30.23;20.20;;;;;;;6.68;100.00;98957.98;1616429;86;21066;-69
2021/12/11 06:21:37;;;;;;;29.25;21.27;;;;;;;6.68;100.00;98947.08;1609507;87;20907;-71
2021/12/11 06:24:08;;;;;;;31.55;20.27;;;;;;;6.69;100.00;98956.06;1608754;88;21018;-69
2021/12/11 06:26:42;;;;;;;29.07;18.52;;;;;;;6.69;100.00;98954.70;1585668;88;21293;-69
2021/12/11 06:29:13;;;;;;;34.20;21.87;;;;;;;6.68;100.00;98955.25;1599130;89;20923;-69
2021/12/11 06:31:46;;;;;;;30.62;20.85;;;;;;;6.71;100.00;98958.73;1586433;88;21840;-72
2021/12/11 06:34:20;;;;;;;30.08;21.10;;;;;;;6.73;100.00;98959.80;1552685;90;21050;-72
2021/12/11 06:36:53;;;;;;;30.85;20.23;;;;;;;6.72;100.00;98962.27;1589183;88;21040;-74
2021/12/11 06:39:25;;;;;;;28.45;18.48;;;;;;;6.71;100.00;98960.66;1576957;90;20962;-71
2021/12/11 06:42:00;;;;;;;33.40;20.40;;;;;;;6.67;100.00;98972.73;1561467;90;21055;-70
2021/12/11 06:44:37;;;;;;;32.67;19.40;;;;;;;6.65;100.00;98964.60;1598708;87;21000;-70
2021/12/11 06:47:07;;;;;;;33.38;21.68;;;;;;;6.61;100.00;98967.13;1581071;89;21034;-70
2021/12/11 06:49:35;;;;;;;31.75;19.80;;;;;;;6.59;100.00;98963.34;1608880;87;21469;-71
2021/12/11 06:52:07;;;;;;;33.13;19.20;;;;;;;6.58;100.00;98977.28;1615125;86;20996;-70
2021/12/11 06:54:34;;;;;;;35.55;21.35;;;;;;;6.58;100.00;98974.55;1636792;86;21499;-70
2021/12/11 06:57:01;;;;;;;33.10;20.77;;;;;;;6.58;100.00;98973.19;1635417;86;22168;-70
2021/12/11 06:59:27;;;;;;;31.85;21.00;;;;;;;6.58;100.00;98977.28;1645293;86;21571;-68
2021/12/11 07:01:53;;;;;;;33.23;20.75;;;;;;;6.59;100.00;98982.98;1650030;86;21010;-69
2021/12/11 07:04:20;;;;;;;34.27;20.12;;;;;;;6.58;100.00;98973.19;1632610;86;21082;-69
2021/12/11 07:06:50;;;;;;;34.92;19.95;;;;;;;6.57;100.00;98984.66;1625039;86;21079;-69
2021/12/11 07:09:19;;;;;;;37.38;21.55;;;;;;;6.56;100.00;98980.86;1633945;86;21137;-69
2021/12/11 07:11:46;;;;;;;32.63;20.48;;;;;;;6.54;100.00;98983.09;1635728;86;21529;-68
2021/12/11 07:14:15;;;;;;;31.20;20.62;;;;;;;6.54;100.00;98977.63;1638330;86;21091;-70
2021/12/11 07:16:42;;;;;;;33.85;21.02;;;;;;;6.54;100.00;98983.09;1640039;85;22128;-70
2021/12/11 07:19:08;;;;;;;34.13;20.05;;;;;;;6.53;100.00;98980.91;1626066;86;21063;-70
2021/12/11 07:21:35;;;;;;;32.65;20.02;;;;;;;6.52;100.00;98976.57;1626094;86;21104;-70
2021/12/11 07:24:05;;;;;;;30.05;19.02;;;;;;;6.51;100.00;98989.95;1635232;86;20962;-70
2021/12/11 07:26:34;;;;;;;33.02;18.65;;;;;;;6.52;100.00;98984.75;1635431;86;21087;-71
2021/12/11 07:29:06;;;;;;;28.75;17.62;;;;;;;6.53;100.00;98984.20;1635058;86;20998;-71
2021/12/11 07:31:33;;;;;;;31.57;19.17;;;;;;;6.52;100.00;98994.30;1634370;86;26233;-71
2021/12/11 07:34:00;;;;;;;29.50;17.80;;;;;;;6.52;100.00;98997.58;1638781;86;21113;-71
2021/12/11 07:36:27;;;;;;;28.23;17.55;;;;;;;6.51;100.00;98983.69;1655607;86;20962;-71
2021/12/11 07:38:54;;;;;;;31.30;18.52;;;;;;;6.51;100.00;98996.77;1641029;86;20937;-70
2021/12/11 07:41:21;;;;;;;28.75;19.02;;;;;;;6.50;100.00;98991.61;1645774;86;20989;-70
2021/12/11 07:43:48;;;;;;;27.45;17.48;;;;;;;6.49;100.00;98985.36;1633021;86;21090;-70
2021/12/11 07:46:18;;;;;;;28.90;16.65;;;;;;;6.50;100.00;98986.16;1627996;86;21527;-70
2021/12/11 07:48:46;;;;;;;32.15;18.82;;;;;;;6.51;100.00;98985.05;1643918;86;21060;-71
2021/12/11 07:51:13;;;;;;;28.65;16.30;;;;;;;6.53;100.00;98992.38;1638015;86;21079;-71
2021/12/11 07:53:40;;;;;;;28.45;17.77;;;;;;;6.52;100.00;98994.30;1633911;86;21516;-71
2021/12/11 07:56:07;;;;;;;27.10;17.23;;;;;;;6.55;100.00;98995.61;1629861;85;20980;-71
2021/12/11 07:58:34;;;;;;;27.25;17.37;;;;;;;6.57;100.00;98991.47;1648135;86;21479;-72
2021/12/11 08:01:03;;;;;;;26.23;17.77;;;;;;;6.58;100.00;98996.37;1637056;86;21468;-72
2021/12/11 08:03:30;;;;;;;35.05;18.65;;;;;;;6.56;100.00;99002.13;1652381;86;20933;-73
2021/12/11 08:05:56;;;;;;;32.25;19.15;;;;;;;6.56;100.00;98995.31;1626900;86;21063;-73
2021/12/11 08:08:24;;;;;;;31.73;16.95;;;;;;;6.55;100.00;98996.97;1638346;86;21462;-71
2021/12/11 08:10:55;;;;;;;36.48;19.10;;;;;;;6.52;100.00;99003.84;1641454;86;22083;-72
2021/12/11 08:13:24;;;;;;;28.83;16.32;;;;;;;6.48;100.00;99002.83;1630255;86;20916;-72
2021/12/11 08:15:50;;;;;;;27.70;17.35;;;;;;;6.45;100.00;98992.52;1637242;86;20928;-72
2021/12/11 08:18:17;;;;;;;28.60;17.90;;;;;;;6.44;100.00;98993.63;1632817;86;21028;-72
2021/12/11 08:20:44;;;;;;;29.65;17.57;;;;;;;6.42;100.00;98997.22;1633919;86;20880;-72
2021/12/11 08:23:12;;;;;;;34.08;18.05;;;;;;;6.41;100.00;98995.59;1653952;86;21141;-72
2021/12/11 08:25:40;;;;;;;28.52;19.00;;;;;;;6.37;100.00;99001.39;1653866;86;21463;-72
2021/12/11 08:28:08;;;;;;;31.23;18.40;;;;;;;6.38;100.00;99003.02;1642542;86;21459;-71
2021/12/11 08:30:36;;;;;;;33.78;20.05;;;;;;;6.35;100.00;99002.28;1636283;86;21521;-72
2021/12/11 08:33:03;;;;;;;32.13;18.52;;;;;;;6.33;100.00;98997.69;1630956;86;20944;-71
2021/12/11 08:35:30;;;;;;;36.95;19.10;;;;;;;6.32;100.00;98997.44;1632580;86;21560;-71
2021/12/11 08:37:59;;;;;;;30.35;18.00;;;;;;;6.32;100.00;98996.07;1640170;87;20915;-72
2021/12/11 08:40:29;;;;;;;28.67;18.02;;;;;;;6.32;100.00;99006.16;1631763;86;21499;-72
2021/12/11 08:42:56;;;;;;;33.23;19.02;;;;;;;6.29;100.00;99009.75;1637696;86;21475;-72
2021/12/11 08:45:26;;;;;;;32.17;17.85;;;;;;;6.27;100.00;99009.23;1639160;87;21451;-72
2021/12/11 08:47:57;;;;;;;32.83;18.98;;;;;;;6.28;100.00;99010.05;1643612;86;21200;-73
2021/12/11 08:50:26;;;;;;;35.00;19.92;;;;;;;6.28;100.00;99005.41;1641487;86;21494;-72
2021/12/11 08:52:54;;;;;;;34.40;19.55;;;;;;;6.27;100.00;99002.98;1640088;86;20915;-72
2021/12/11 08:55:25;;;;;;;32.35;19.27;;;;;;;6.26;100.00;98999.44;1632503;86;20891;-72
2021/12/11 08:57:52;;;;;;;32.73;20.37;;;;;;;6.28;100.00;99004.59;1631186;86;20900;-71
2021/12/11 09:00:24;;;;;;;39.90;21.23;;;;;;;6.27;100.00;99001.61;1634291;86;21129;-72
2021/12/11 09:03:00;;;;;;;36.73;19.87;;;;;;;6.27;100.00;99007.88;1637413;86;21038;-72
2021/12/11 09:05:37;;;;;;;34.98;19.30;;;;;;;6.27;100.00;99009.23;1638268;86;21058;-72
2021/12/11 09:08:14;;;;;;;31.95;19.77;;;;;;;6.28;100.00;98995.05;1636884;86;20995;-72
2021/12/11 09:10:51;;;;;;;32.25;19.20;;;;;;;6.27;100.00;99004.34;1656931;86;20959;-71
2021/12/11 09:13:41;;;;;;;33.35;19.02;;;;;;;6.26;100.00;99002.17;1646506;86;21503;-72
2021/12/11 09:16:22;;;;;;;34.50;19.98;;;;;;;6.25;100.00;99002.47;1637073;86;20896;-71
2021/12/11 09:19:00;;;;;;;37.70;20.40;;;;;;;6.26;100.00;99004.09;1637402;86;21475;-71
2021/12/11 09:21:50;;;;;;;36.28;20.27;;;;;;;6.24;100.00;99002.22;1604652;87;21004;-71
2021/12/11 09:24:23;;;;;;;31.12;19.62;;;;;;;6.24;100.00;99001.66;1616504;87;21008;-71
2021/12/11 09:26:58;;;;;;;36.25;19.87;;;;;;;6.22;100.00;99005.80;1612256;87;21428;-71
2021/12/11 09:29:45;;;;;;;42.03;21.15;;;;;;;6.21;100.00;98997.36;1609418;88;21045;-71
2021/12/11 09:32:31;;;;;;;33.88;19.52;;;;;;;6.20;100.00;99001.20;1593412;88;20996;-71
2021/12/11 09:35:21;;;;;;;36.20;19.42;;;;;;;6.17;100.00;99001.80;1590972;89;21050;-71
2021/12/11 09:37:51;;;;;;;39.30;21.07;;;;;;;6.13;100.00;98993.41;1629566;87;21487;-70
2021/12/11 09:40:41;;;;;;;34.90;20.50;;;;;;;6.13;100.00;98993.41;1576782;90;21148;-71
2021/12/11 09:43:08;;;;;;;38.28;20.57;;;;;;;6.13;100.00;98998.86;1632373;87;21459;-71
2021/12/11 09:45:40;;;;;;;38.63;20.17;;;;;;;6.08;100.00;98991.33;1637739;86;21007;-71
2021/12/11 09:48:11;;;;;;;39.85;22.42;;;;;;;6.04;100.00;98995.76;1637235;87;20983;-71
2021/12/11 09:50:50;;;;;;;36.28;21.00;;;;;;;6.01;100.00;98996.36;1652203;86;20966;-71
2021/12/11 09:53:16;;;;;;;39.95;21.97;;;;;;;5.99;100.00;98994.48;1638530;86;21548;-71
2021/12/11 09:55:43;;;;;;;35.30;20.57;;;;;;;5.96;100.00;98995.89;1637576;86;20947;-72
2021/12/11 09:58:14;;;;;;;37.70;21.48;;;;;;;5.93;100.00;98998.66;1640252;86;21649;-71
2021/12/11 10:01:04;;;;;;;36.80;20.88;;;;;;;5.94;100.00;98987.20;1638558;86;21443;-70
2021/12/11 10:03:39;;;;;;;38.78;22.05;;;;;;;5.94;100.00;98989.92;1640335;86;21000;-70
2021/12/11 10:06:15;;;;;;;40.15;21.57;;;;;;;5.93;100.00;98985.03;1641544;86;21148;-71
2021/12/11 10:08:44;;;;;;;38.45;20.30;;;;;;;5.93;100.00;98985.03;1645971;86;20908;-71
2021/12/11 10:11:23;;;;;;;34.50;19.55;;;;;;;5.95;100.00;98982.01;1633657;86;21471;-71
2021/12/11 10:14:07;;;;;;;42.83;20.32;;;;;;;5.96;100.00;98979.54;1639945;86;20992;-71
2021/12/11 10:16:39;;;;;;;37.20;20.82;;;;;;;5.96;100.00;98973.54;1640582;86;21018;-71
2021/12/11 10:19:07;;;;;;;39.10;20.00;;;;;;;5.99;100.00;98982.22;1639704;86;21092;-71
2021/12/11 10:21:38;;;;;;;33.85;19.65;;;;;;;6.03;100.00;98982.69;1626960;86;20956;-71
2021/12/11 10:24:09;;;;;;;28.85;18.42;;;;;;;6.03;100.00;98982.69;1627322;86;21017;-71
2021/12/11 10:26:36;;;;;;;33.85;20.72;;;;;;;6.02;100.00;98987.07;1635037;86;21578;-71
2021/12/11 10:29:07;;;;;;;34.90;20.27;;;;;;;6.01;100.00;98980.01;1641586;86;21081;-70
2021/12/11 10:31:38;;;;;;;37.50;19.52;;;;;;;6.01;100.00;98974.56;1637147;86;21810;-70
2021/12/11 10:34:10;;;;;;;29.80;16.93;;;;;;;6.00;100.00;98974.30;1643526;86;21010;-70
2021/12/11 10:36:49;;;;;;;29.30;17.57;;;;;;;5.99;100.00;98980.30;1642519;86;20999;-70
2021/12/11 10:39:15;;;;;;;27.67;16.50;;;;;;;5.98;100.00;98973.23;1637947;86;21510;-70
2021/12/11 10:41:42;;;;;;;28.87;16.35;;;;;;;5.95;100.00;98964.30;1638669;86;20970;-69
2021/12/11 10:44:23;;;;;;;25.97;15.15;;;;;;;5.95;100.00;98964.30;1633264;86;21759;-70
2021/12/11 10:46:58;;;;;;;27.48;15.75;;;;;;;5.95;100.00;98980.65;1637465;86;21023;-68
2021/12/11 10:49:25;;;;;;;27.50;15.40;;;;;;;5.96;100.00;98980.34;1626893;86;20999;-69
2021/12/11 10:52:00;;;;;;;26.50;15.18;;;;;;;5.94;100.00;98973.58;1635518;86;21034;-69
2021/12/11 10:54:27;;;;;;;24.95;14.30;;;;;;;5.92;100.00;98979.33;1636578;86;21014;-69
2021/12/11 10:56:53;;;;;;;31.20;16.15;;;;;;;5.91;100.00;98980.44;1635263;86;21220;-69
2021/12/11 10:59:27;;;;;;;26.62;14.23;;;;;;;5.89;100.00;98981.28;1632181;86;21762;-70
2021/12/11 11:02:02;;;;;;;23.98;13.08;;;;;;;5.88;100.00;98987.81;1634461;86;21072;-69
2021/12/11 11:04:38;;;;;;;23.38;13.88;;;;;;;5.84;100.00;98987.34;1636517;86;21050;-69
2021/12/11 11:07:05;;;;;;;22.58;13.13;;;;;;;5.84;100.00;98987.34;1610622;89;21016;-69
2021/12/11 11:09:31;;;;;;;24.85;13.58;;;;;;;5.81;100.00;98992.83;1610663;88;21162;-68
2021/12/11 11:12:05;;;;;;;22.73;12.80;;;;;;;5.79;100.00;98980.62;1610756;88;20917;-69
2021/12/11 11:14:33;;;;;;;24.27;12.90;;;;;;;5.80;100.00;98981.68;1610707;89;21009;-68
2021/12/11 11:17:05;;;;;;;18.27;11.55;;;;;;;5.80;100.00;98981.68;1610630;88;20910;-69
2021/12/11 11:19:32;;;;;;;17.90;11.30;;;;;;;5.81;100.00;98983.30;1611000;87;20989;-69
2021/12/11 11:22:02;;;;;;;20.02;10.98;;;;;;;5.81;100.00;98983.30;1610821;89;21870;-69
2021/12/11 11:24:32;;;;;;;19.60;10.90;;;;;;;5.80;100.00;98977.59;1610591;87;21453;-69
2021/12/11 11:26:59;;;;;;;15.98;10.48;;;;;;;5.80;100.00;98979.52;1610144;88;21576;-69
2021/12/11 11:29:26;;;;;;;17.12;9.70;;;;;;;5.79;100.00;98979.25;1610811;87;20969;-69
2021/12/11 11:31:58;;;;;;;21.50;10.35;;;;;;;5.79;100.00;98975.17;1610581;89;20957;-69
2021/12/11 11:34:26;;;;;;;15.15;9.23;;;;;;;5.79;100.00;98981.42;1610653;88;21121;-69
2021/12/11 11:36:53;;;;;;;16.77;9.83;;;;;;;5.77;100.00;98980.95;1610700;89;21092;-69
2021/12/11 11:39:21;;;;;;;15.95;9.08;;;;;;;5.77;100.00;98980.95;1610693;88;21453;-69
2021/12/11 11:41:55;;;;;;;16.80;9.25;;;;;;;5.78;100.00;98979.00;1610506;89;20988;-69
2021/12/11 11:44:24;;;;;;;16.23;9.20;;;;;;;5.80;100.00;98991.22;1610931;88;21064;-69
2021/12/11 11:46:51;;;;;;;17.35;9.35;;;;;;;5.82;100.00;98985.47;1610914;89;21493;-69
2021/12/11 11:49:18;;;;;;;15.58;8.63;;;;;;;5.82;100.00;98983.55;1610702;88;21472;-69